CFG5FN LFPG-EDDF
Flight info
| Callsign | CFG5FN |
|---|---|
| Flight time | 0h 40m |
| Altitude | 23000 |
| Route | RANUX DCT VALEK DCT LIPNI UN858 LIMGO Z111 RAMOB IMCOM1D |
| Aircraft | A320/M-SDE3FGHIRWY/LB1 |
Departure
| Time | 2026-05-08 20:33 |
|---|---|
| Airport | Charles de Gaulle International Airport (LFPG) |
Arrival
| Time | 2026-05-08 21:14 |
|---|---|
| Airport | Frankfurt Main Airport (EDDF) |
| Time | Latitude | Longitude | Altitude | Speed | Heading |
|---|---|---|---|---|---|
| 2026-05-08 20:08 | 49.01183 | 2.55705 | 354 ft | 0 kts | 170° |
| 2026-05-08 20:23 | 49.01201 | 2.55700 | 356 ft | 4 kts | 169° |
| 2026-05-08 20:23 | 49.01228 | 2.55692 | 362 ft | 4 kts | 170° |
| 2026-05-08 20:23 | 49.01254 | 2.55687 | 363 ft | 4 kts | 185° |
| 2026-05-08 20:24 | 49.01273 | 2.55696 | 362 ft | 3 kts | 257° |
| 2026-05-08 20:24 | 49.01274 | 2.55701 | 362 ft | 0 kts | 265° |
| 2026-05-08 20:26 | 49.01274 | 2.55700 | 362 ft | 1 kts | 265° |
| 2026-05-08 20:26 | 49.01271 | 2.55665 | 361 ft | 6 kts | 264° |
| 2026-05-08 20:27 | 49.01266 | 2.55575 | 354 ft | 11 kts | 264° |
| 2026-05-08 20:27 | 49.01257 | 2.55430 | 354 ft | 15 kts | 264° |
| 2026-05-08 20:27 | 49.01247 | 2.55259 | 354 ft | 18 kts | 265° |
| 2026-05-08 20:27 | 49.01280 | 2.55194 | 355 ft | 9 kts | 15° |
| 2026-05-08 20:28 | 49.01356 | 2.55216 | 358 ft | 14 kts | 348° |
| 2026-05-08 20:28 | 49.01467 | 2.55176 | 356 ft | 19 kts | 350° |
| 2026-05-08 20:28 | 49.01609 | 2.55159 | 354 ft | 22 kts | 357° |
| 2026-05-08 20:28 | 49.01767 | 2.55137 | 357 ft | 24 kts | 355° |
| 2026-05-08 20:29 | 49.01905 | 2.55096 | 360 ft | 9 kts | 306° |
| 2026-05-08 20:29 | 49.01860 | 2.55002 | 354 ft | 15 kts | 244° |
| 2026-05-08 20:29 | 49.01846 | 2.54798 | 354 ft | 23 kts | 264° |
| 2026-05-08 20:29 | 49.01831 | 2.54527 | 362 ft | 28 kts | 265° |
| 2026-05-08 20:30 | 49.01815 | 2.54213 | 361 ft | 31 kts | 265° |
| 2026-05-08 20:30 | 49.01798 | 2.53880 | 354 ft | 32 kts | 265° |
| 2026-05-08 20:30 | 49.01779 | 2.53539 | 354 ft | 33 kts | 265° |
| 2026-05-08 20:30 | 49.01759 | 2.53198 | 354 ft | 33 kts | 265° |
| 2026-05-08 20:31 | 49.01742 | 2.52855 | 360 ft | 26 kts | 265° |
| 2026-05-08 20:31 | 49.01799 | 2.52695 | 354 ft | 12 kts | 317° |
| 2026-05-08 20:31 | 49.01869 | 2.52735 | 356 ft | 11 kts | 18° |
| 2026-05-08 20:31 | 49.01952 | 2.52737 | 358 ft | 13 kts | 356° |
| 2026-05-08 20:32 | 49.02044 | 2.52726 | 355 ft | 14 kts | 355° |
| 2026-05-08 20:32 | 49.02137 | 2.52743 | 360 ft | 14 kts | 58° |
| 2026-05-08 20:32 | 49.02142 | 2.52782 | 356 ft | 0 kts | 84° |
| 2026-05-08 20:32 | 49.02143 | 2.52804 | 356 ft | 12 kts | 84° |
| 2026-05-08 20:33 | 49.02171 | 2.53336 | 354 ft | 86 kts | 86° |
| 2026-05-08 20:33 | 49.02238 | 2.54557 | 355 ft | 143 kts | 85° |
| 2026-05-08 20:33 | 49.02325 | 2.56241 | 658 ft | 160 kts | 85° |
| 2026-05-08 20:33 | 49.02404 | 2.57896 | 1377 ft | 158 kts | 85° |
| 2026-05-08 20:34 | 49.02491 | 2.59560 | 2068 ft | 157 kts | 85° |
| 2026-05-08 20:34 | 49.02581 | 2.61224 | 2687 ft | 157 kts | 85° |
| 2026-05-08 20:34 | 49.02760 | 2.64549 | 3732 ft | 165 kts | 86° |
| 2026-05-08 20:35 | 49.02858 | 2.66415 | 3977 ft | 187 kts | 86° |
| 2026-05-08 20:35 | 49.02970 | 2.68513 | 4206 ft | 211 kts | 86° |
| 2026-05-08 20:35 | 49.03096 | 2.70873 | 4514 ft | 235 kts | 86° |
| 2026-05-08 20:35 | 49.03230 | 2.73458 | 4912 ft | 257 kts | 86° |
| 2026-05-08 20:36 | 49.03368 | 2.76234 | 5596 ft | 267 kts | 87° |
| 2026-05-08 20:36 | 49.03505 | 2.79103 | 6382 ft | 274 kts | 86° |
| 2026-05-08 20:36 | 49.03644 | 2.82045 | 7148 ft | 280 kts | 86° |
| 2026-05-08 20:36 | 49.03783 | 2.84999 | 7918 ft | 284 kts | 86° |
| 2026-05-08 20:37 | 49.03926 | 2.88038 | 8689 ft | 290 kts | 86° |
| 2026-05-08 20:37 | 49.04071 | 2.91132 | 9464 ft | 295 kts | 87° |
| 2026-05-08 20:37 | 49.04228 | 2.94282 | 10223 ft | 300 kts | 85° |
| 2026-05-08 20:37 | 49.04440 | 2.97515 | 10573 ft | 320 kts | 84° |
| 2026-05-08 20:38 | 49.04705 | 3.01011 | 10775 ft | 344 kts | 84° |
| 2026-05-08 20:38 | 49.05001 | 3.04758 | 10981 ft | 364 kts | 84° |
| 2026-05-08 20:38 | 49.05307 | 3.08657 | 11528 ft | 372 kts | 84° |
| 2026-05-08 20:38 | 49.05609 | 3.12607 | 12169 ft | 377 kts | 84° |
| 2026-05-08 20:39 | 49.05904 | 3.16560 | 12843 ft | 381 kts | 84° |
| 2026-05-08 20:39 | 49.06197 | 3.20601 | 13541 ft | 384 kts | 84° |
| 2026-05-08 20:39 | 49.06488 | 3.24684 | 14195 ft | 387 kts | 84° |
| 2026-05-08 20:39 | 49.06779 | 3.28790 | 14804 ft | 390 kts | 84° |
| 2026-05-08 20:40 | 49.07069 | 3.32918 | 15424 ft | 393 kts | 84° |
| 2026-05-08 20:40 | 49.07359 | 3.37022 | 16031 ft | 395 kts | 84° |
| 2026-05-08 20:40 | 49.07653 | 3.41238 | 16640 ft | 398 kts | 84° |
| 2026-05-08 20:40 | 49.07946 | 3.45462 | 17253 ft | 401 kts | 84° |
| 2026-05-08 20:41 | 49.08235 | 3.49648 | 17848 ft | 403 kts | 84° |
| 2026-05-08 20:41 | 49.08528 | 3.53937 | 18431 ft | 406 kts | 84° |
| 2026-05-08 20:41 | 49.08823 | 3.58237 | 18936 ft | 410 kts | 83° |
| 2026-05-08 20:41 | 49.09124 | 3.62596 | 19428 ft | 413 kts | 83° |
| 2026-05-08 20:42 | 49.09426 | 3.66987 | 19900 ft | 416 kts | 83° |
| 2026-05-08 20:42 | 49.09721 | 3.71351 | 20360 ft | 420 kts | 83° |
| 2026-05-08 20:42 | 49.10020 | 3.75814 | 20815 ft | 423 kts | 82° |
| 2026-05-08 20:42 | 49.10318 | 3.80306 | 21265 ft | 426 kts | 82° |
| 2026-05-08 20:43 | 49.10615 | 3.84827 | 21705 ft | 429 kts | 82° |
| 2026-05-08 20:43 | 49.10914 | 3.89383 | 22132 ft | 433 kts | 82° |
| 2026-05-08 20:43 | 49.11211 | 3.93930 | 22543 ft | 436 kts | 82° |
| 2026-05-08 20:43 | 49.11513 | 3.98566 | 22949 ft | 439 kts | 81° |
| 2026-05-08 20:44 | 49.11815 | 4.03230 | 23071 ft | 444 kts | 81° |
| 2026-05-08 20:44 | 49.12121 | 4.07989 | 23089 ft | 455 kts | 81° |
| 2026-05-08 20:44 | 49.12427 | 4.12761 | 23087 ft | 459 kts | 82° |
| 2026-05-08 20:44 | 49.12736 | 4.17646 | 23083 ft | 461 kts | 82° |
| 2026-05-08 20:45 | 49.13040 | 4.22531 | 23084 ft | 461 kts | 82° |
| 2026-05-08 20:45 | 49.13239 | 4.25769 | 23080 ft | 461 kts | 82° |
| 2026-05-08 20:45 | 49.13655 | 4.32312 | 23084 ft | 461 kts | 79° |
| 2026-05-08 20:45 | 49.14279 | 4.37023 | 23082 ft | 457 kts | 71° |
| 2026-05-08 20:46 | 49.15351 | 4.41577 | 23097 ft | 454 kts | 64° |
| 2026-05-08 20:46 | 49.16577 | 4.46044 | 23078 ft | 454 kts | 64° |
| 2026-05-08 20:46 | 49.17792 | 4.50502 | 23079 ft | 453 kts | 64° |
| 2026-05-08 20:46 | 49.18987 | 4.54911 | 23075 ft | 453 kts | 65° |
| 2026-05-08 20:47 | 49.20190 | 4.59369 | 23069 ft | 453 kts | 65° |
| 2026-05-08 20:47 | 49.21393 | 4.63837 | 23077 ft | 453 kts | 65° |
| 2026-05-08 20:47 | 49.22592 | 4.68296 | 23087 ft | 452 kts | 65° |
| 2026-05-08 20:47 | 49.23785 | 4.72743 | 23099 ft | 450 kts | 65° |
| 2026-05-08 20:48 | 49.24964 | 4.77140 | 23102 ft | 449 kts | 65° |
| 2026-05-08 20:48 | 49.26149 | 4.81564 | 23098 ft | 449 kts | 65° |
| 2026-05-08 20:48 | 49.27331 | 4.85988 | 23099 ft | 448 kts | 65° |
| 2026-05-08 20:48 | 49.28516 | 4.90425 | 23105 ft | 448 kts | 66° |
| 2026-05-08 20:49 | 49.29694 | 4.94838 | 23105 ft | 447 kts | 66° |
| 2026-05-08 20:49 | 49.30854 | 4.99193 | 23104 ft | 447 kts | 66° |
| 2026-05-08 20:49 | 49.32027 | 5.03607 | 23097 ft | 446 kts | 66° |
| 2026-05-08 20:49 | 49.33199 | 5.08026 | 23096 ft | 446 kts | 66° |
| 2026-05-08 20:50 | 49.34366 | 5.12446 | 23091 ft | 446 kts | 66° |
| 2026-05-08 20:50 | 49.35513 | 5.16802 | 23084 ft | 446 kts | 66° |
| 2026-05-08 20:50 | 49.36675 | 5.21217 | 23088 ft | 446 kts | 66° |
| 2026-05-08 20:50 | 49.37836 | 5.25633 | 23084 ft | 446 kts | 66° |
| 2026-05-08 20:51 | 49.38995 | 5.30052 | 23085 ft | 446 kts | 67° |
| 2026-05-08 20:51 | 49.40151 | 5.34477 | 23085 ft | 446 kts | 67° |
| 2026-05-08 20:51 | 49.41291 | 5.38852 | 23084 ft | 446 kts | 68° |
| 2026-05-08 20:51 | 49.42445 | 5.43278 | 23078 ft | 446 kts | 68° |
| 2026-05-08 20:52 | 49.43600 | 5.47714 | 23083 ft | 446 kts | 68° |
| 2026-05-08 20:52 | 49.44752 | 5.52152 | 23084 ft | 447 kts | 67° |
| 2026-05-08 20:52 | 49.45977 | 5.56566 | 23085 ft | 447 kts | 65° |
| 2026-05-08 20:52 | 49.47307 | 5.60882 | 23084 ft | 446 kts | 63° |
| 2026-05-08 20:53 | 49.48687 | 5.65086 | 23088 ft | 446 kts | 62° |
| 2026-05-08 20:53 | 49.50089 | 5.69414 | 23084 ft | 447 kts | 67° |
| 2026-05-08 20:53 | 49.51014 | 5.73927 | 23092 ft | 447 kts | 73° |
| 2026-05-08 20:53 | 49.51846 | 5.78552 | 23088 ft | 448 kts | 74° |
| 2026-05-08 20:54 | 49.52662 | 5.83168 | 23089 ft | 448 kts | 74° |
| 2026-05-08 20:54 | 49.53475 | 5.87830 | 23086 ft | 448 kts | 75° |
| 2026-05-08 20:54 | 49.54277 | 5.92431 | 23082 ft | 449 kts | 75° |
| 2026-05-08 20:54 | 49.55093 | 5.97091 | 23083 ft | 450 kts | 74° |
| 2026-05-08 20:55 | 49.55910 | 6.01760 | 23088 ft | 450 kts | 75° |
| 2026-05-08 20:55 | 49.56715 | 6.06376 | 23087 ft | 450 kts | 75° |
| 2026-05-08 20:55 | 49.57530 | 6.11049 | 23088 ft | 451 kts | 74° |
| 2026-05-08 20:55 | 49.58343 | 6.15730 | 23094 ft | 451 kts | 75° |
| 2026-05-08 20:56 | 49.59144 | 6.20349 | 23094 ft | 451 kts | 75° |
| 2026-05-08 20:56 | 49.59952 | 6.25014 | 23096 ft | 451 kts | 75° |
| 2026-05-08 20:56 | 49.60759 | 6.29690 | 23096 ft | 451 kts | 75° |
| 2026-05-08 20:56 | 49.61567 | 6.34392 | 23093 ft | 451 kts | 75° |
| 2026-05-08 20:57 | 49.62367 | 6.39071 | 23091 ft | 451 kts | 75° |
| 2026-05-08 20:57 | 49.63168 | 6.43768 | 23092 ft | 452 kts | 75° |
| 2026-05-08 20:57 | 49.63962 | 6.48419 | 23091 ft | 452 kts | 75° |
| 2026-05-08 20:57 | 49.64763 | 6.53118 | 23095 ft | 452 kts | 75° |
| 2026-05-08 20:58 | 49.65560 | 6.57810 | 23093 ft | 452 kts | 75° |
| 2026-05-08 20:58 | 49.66357 | 6.62525 | 23094 ft | 452 kts | 75° |
| 2026-05-08 20:58 | 49.67150 | 6.67237 | 22991 ft | 453 kts | 75° |
| 2026-05-08 20:58 | 49.67936 | 6.71930 | 22267 ft | 449 kts | 75° |
| 2026-05-08 20:59 | 49.68705 | 6.76526 | 21564 ft | 444 kts | 75° |
| 2026-05-08 20:59 | 49.69473 | 6.81118 | 20866 ft | 440 kts | 76° |
| 2026-05-08 20:59 | 49.70232 | 6.85676 | 20184 ft | 436 kts | 76° |
| 2026-05-08 20:59 | 49.70984 | 6.90213 | 19523 ft | 432 kts | 76° |
| 2026-05-08 21:00 | 49.71718 | 6.94656 | 18876 ft | 429 kts | 76° |
| 2026-05-08 21:00 | 49.72455 | 6.99122 | 18227 ft | 426 kts | 76° |
| 2026-05-08 21:00 | 49.73187 | 7.03562 | 17601 ft | 422 kts | 76° |
| 2026-05-08 21:00 | 49.73901 | 7.07879 | 17032 ft | 417 kts | 76° |
| 2026-05-08 21:01 | 49.74617 | 7.12217 | 16478 ft | 413 kts | 76° |
| 2026-05-08 21:01 | 49.75319 | 7.16505 | 15941 ft | 409 kts | 76° |
| 2026-05-08 21:01 | 49.76011 | 7.20758 | 15404 ft | 404 kts | 76° |
| 2026-05-08 21:01 | 49.76683 | 7.24906 | 14843 ft | 401 kts | 76° |
| 2026-05-08 21:02 | 49.77364 | 7.29102 | 14274 ft | 399 kts | 76° |
| 2026-05-08 21:02 | 49.78038 | 7.33251 | 13693 ft | 396 kts | 76° |
| 2026-05-08 21:02 | 49.78705 | 7.37370 | 13105 ft | 392 kts | 77° |
| 2026-05-08 21:02 | 49.79357 | 7.41416 | 12515 ft | 388 kts | 77° |
| 2026-05-08 21:03 | 49.80008 | 7.45456 | 11904 ft | 385 kts | 77° |
| 2026-05-08 21:03 | 49.80654 | 7.49478 | 11290 ft | 382 kts | 77° |
| 2026-05-08 21:03 | 49.81271 | 7.53351 | 11099 ft | 367 kts | 77° |
| 2026-05-08 21:03 | 49.81869 | 7.57109 | 10971 ft | 352 kts | 77° |
| 2026-05-08 21:04 | 49.82445 | 7.60722 | 10847 ft | 337 kts | 77° |
| 2026-05-08 21:04 | 49.82993 | 7.64154 | 10727 ft | 325 kts | 77° |
| 2026-05-08 21:04 | 49.83522 | 7.67492 | 10603 ft | 313 kts | 77° |
| 2026-05-08 21:04 | 49.84034 | 7.70725 | 10449 ft | 303 kts | 77° |
| 2026-05-08 21:05 | 49.84533 | 7.73877 | 10236 ft | 298 kts | 77° |
| 2026-05-08 21:05 | 49.85024 | 7.76996 | 9693 ft | 307 kts | 77° |
| 2026-05-08 21:05 | 49.85542 | 7.80304 | 8704 ft | 323 kts | 77° |
| 2026-05-08 21:05 | 49.86084 | 7.83771 | 7659 ft | 338 kts | 76° |
| 2026-05-08 21:06 | 49.86687 | 7.87365 | 6933 ft | 342 kts | 71° |
| 2026-05-08 21:06 | 49.87523 | 7.90706 | 6806 ft | 325 kts | 69° |
| 2026-05-08 21:06 | 49.88313 | 7.93876 | 6687 ft | 310 kts | 69° |
| 2026-05-08 21:06 | 49.89066 | 7.96940 | 6551 ft | 296 kts | 69° |
| 2026-05-08 21:07 | 49.89785 | 7.99899 | 6352 ft | 286 kts | 70° |
| 2026-05-08 21:07 | 49.90236 | 8.01795 | 6248 ft | 278 kts | 70° |
| 2026-05-08 21:07 | 49.90907 | 8.04565 | 5921 ft | 273 kts | 69° |
| 2026-05-08 21:07 | 49.91580 | 8.07306 | 5559 ft | 270 kts | 69° |
| 2026-05-08 21:08 | 49.92243 | 8.10012 | 5191 ft | 267 kts | 69° |
| 2026-05-08 21:08 | 49.92890 | 8.12661 | 4826 ft | 264 kts | 69° |
| 2026-05-08 21:08 | 49.93540 | 8.15321 | 4426 ft | 262 kts | 70° |
| 2026-05-08 21:08 | 49.94182 | 8.17955 | 4048 ft | 259 kts | 70° |
| 2026-05-08 21:09 | 49.94818 | 8.20566 | 4001 ft | 258 kts | 70° |
| 2026-05-08 21:09 | 49.95452 | 8.23176 | 4005 ft | 256 kts | 70° |
| 2026-05-08 21:09 | 49.96050 | 8.25634 | 3974 ft | 234 kts | 70° |
| 2026-05-08 21:09 | 49.96602 | 8.27909 | 3773 ft | 216 kts | 70° |
| 2026-05-08 21:10 | 49.97116 | 8.30028 | 3508 ft | 203 kts | 70° |
| 2026-05-08 21:10 | 49.97602 | 8.32034 | 3262 ft | 193 kts | 70° |
| 2026-05-08 21:10 | 49.98061 | 8.33932 | 2994 ft | 181 kts | 71° |
| 2026-05-08 21:10 | 49.98484 | 8.35682 | 2742 ft | 168 kts | 71° |
| 2026-05-08 21:11 | 49.98872 | 8.37284 | 2536 ft | 149 kts | 71° |
| 2026-05-08 21:11 | 49.99225 | 8.38746 | 2344 ft | 140 kts | 71° |
| 2026-05-08 21:11 | 49.99559 | 8.40132 | 2157 ft | 136 kts | 71° |
| 2026-05-08 21:11 | 49.99889 | 8.41509 | 1978 ft | 135 kts | 71° |
| 2026-05-08 21:12 | 50.00217 | 8.42867 | 1797 ft | 134 kts | 71° |
| 2026-05-08 21:12 | 50.00542 | 8.44225 | 1596 ft | 134 kts | 71° |
| 2026-05-08 21:12 | 50.00870 | 8.45578 | 1419 ft | 133 kts | 70° |
| 2026-05-08 21:12 | 50.01199 | 8.46942 | 1248 ft | 135 kts | 69° |
| 2026-05-08 21:13 | 50.01527 | 8.48310 | 1083 ft | 135 kts | 69° |
| 2026-05-08 21:13 | 50.01859 | 8.49688 | 897 ft | 136 kts | 67° |
| 2026-05-08 21:13 | 50.02188 | 8.51054 | 702 ft | 136 kts | 67° |
| 2026-05-08 21:13 | 50.02516 | 8.52429 | 529 ft | 135 kts | 66° |
| 2026-05-08 21:14 | 50.02845 | 8.53795 | 361 ft | 133 kts | 67° |
| 2026-05-08 21:14 | 50.03128 | 8.54980 | 344 ft | 94 kts | 69° |
| 2026-05-08 21:14 | 50.03299 | 8.55658 | 345 ft | 40 kts | 60° |
| 2026-05-08 21:14 | 50.03429 | 8.55849 | 350 ft | 18 kts | 40° |
| 2026-05-08 21:15 | 50.03522 | 8.55970 | 352 ft | 17 kts | 40° |
| 2026-05-08 21:15 | 50.03609 | 8.56082 | 351 ft | 16 kts | 40° |
| 2026-05-08 21:15 | 50.03672 | 8.56222 | 354 ft | 17 kts | 69° |
| 2026-05-08 21:15 | 50.03714 | 8.56399 | 357 ft | 18 kts | 69° |
| 2026-05-08 21:16 | 50.03760 | 8.56592 | 358 ft | 16 kts | 68° |
| 2026-05-08 21:16 | 50.03851 | 8.56670 | 355 ft | 16 kts | 11° |
| 2026-05-08 21:16 | 50.03970 | 8.56707 | 355 ft | 19 kts | 11° |
| 2026-05-08 21:16 | 50.04109 | 8.56750 | 365 ft | 20 kts | 11° |
| 2026-05-08 21:17 | 50.04228 | 8.56789 | 359 ft | 16 kts | 13° |
| 2026-05-08 21:17 | 50.04327 | 8.56823 | 363 ft | 14 kts | 12° |
| 2026-05-08 21:17 | 50.04418 | 8.56849 | 363 ft | 16 kts | 9° |
| 2026-05-08 21:17 | 50.04486 | 8.56970 | 362 ft | 18 kts | 69° |
| 2026-05-08 21:18 | 50.04532 | 8.57162 | 363 ft | 20 kts | 70° |
| 2026-05-08 21:18 | 50.04567 | 8.57312 | 357 ft | 12 kts | 70° |
| 2026-05-08 21:18 | 50.04629 | 8.57380 | 363 ft | 8 kts | 15° |
| 2026-05-08 21:18 | 50.04646 | 8.57387 | 362 ft | 1 kts | 15° |
| 2026-05-08 21:19 | 50.04650 | 8.57389 | 362 ft | 0 kts | 15° |
| 2026-05-08 21:19 | 50.04667 | 8.57393 | 356 ft | 5 kts | 3° |
| 2026-05-08 21:19 | 50.04703 | 8.57353 | 356 ft | 7 kts | 297° |
| 2026-05-08 21:19 | 50.04710 | 8.57291 | 356 ft | 5 kts | 276° |
| 2026-05-08 21:20 | 50.04711 | 8.57282 | 356 ft | 0 kts | 276° |